createdAt,value
2022-11-29T00:01:15.506Z,58.83
2022-11-29T00:04:17.884Z,49.67
2022-11-29T00:07:20.141Z,51.60
2022-11-29T00:10:22.652Z,42.67
2022-11-29T00:13:24.855Z,41.63
2022-11-29T00:16:27.104Z,39.03
2022-11-29T00:19:29.626Z,41.63
2022-11-29T00:22:31.795Z,40.95
2022-11-29T00:25:34.047Z,38.17
2022-11-29T00:28:36.925Z,42.38
2022-11-29T00:31:39.605Z,39.05
2022-11-29T00:34:41.906Z,36.33
2022-11-29T00:37:44.431Z,32.33
2022-11-29T00:40:51.813Z,38.27
2022-11-29T00:43:54.313Z,33.00
2022-11-29T00:46:57.511Z,35.10
2022-11-29T00:49:59.611Z,37.03
2022-11-29T00:53:01.752Z,30.00
2022-11-29T00:56:05.083Z,29.57
2022-11-29T00:59:07.255Z,31.77
2022-11-29T01:02:09.443Z,29.02
2022-11-29T01:05:11.594Z,32.45
2022-11-29T01:08:14.902Z,35.47
2022-11-29T01:11:26.186Z,31.97
2022-11-29T01:14:28.331Z,36.03
2022-11-29T01:17:30.615Z,39.05
2022-11-29T01:20:32.903Z,40.70
2022-11-29T01:23:36.904Z,40.72
2022-11-29T01:26:39.062Z,38.90
2022-11-29T01:29:41.203Z,43.35
2022-11-29T01:32:43.332Z,39.47
2022-11-29T01:35:49.976Z,39.35
2022-11-29T01:38:52.436Z,45.10
2022-11-29T01:41:55.093Z,42.63
2022-11-29T01:45:05.005Z,50.65
2022-11-29T01:48:07.228Z,45.92
2022-11-29T01:51:09.357Z,40.05
2022-11-29T01:54:11.874Z,35.88
2022-11-29T01:57:14.472Z,40.13
2022-11-29T02:00:18.539Z,42.30
2022-11-29T02:03:21.834Z,49.50
2022-11-29T02:06:24.089Z,43.20
2022-11-29T02:09:26.444Z,55.10
2022-11-29T02:12:35.172Z,42.37
2022-11-29T02:16:11.345Z,41.58
2022-11-29T02:19:28.496Z,44.30
2022-11-29T02:22:37.594Z,44.78
2022-11-29T02:25:48.701Z,44.20
2022-11-29T02:29:27.937Z,48.23
2022-11-29T02:32:39.034Z,45.15
2022-11-29T02:35:59.871Z,42.85
2022-11-29T02:39:31.017Z,41.03
2022-11-29T02:42:57.042Z,37.30
2022-11-29T02:46:27.032Z,45.77
2022-11-29T02:49:44.269Z,42.25
2022-11-29T02:53:18.746Z,41.50
2022-11-29T02:56:25.083Z,40.10
2022-11-29T02:59:39.701Z,48.58
2022-11-29T03:03:05.367Z,51.70
2022-11-29T03:06:32.337Z,51.65
2022-11-29T03:09:45.450Z,56.38
2022-11-29T03:12:50.117Z,51.38
2022-11-29T03:16:07.109Z,49.28
2022-11-29T03:19:21.214Z,39.27
2022-11-29T03:22:39.761Z,53.58
2022-11-29T03:26:01.817Z,54.00
2022-11-29T03:29:20.058Z,53.58
2022-11-29T03:32:34.917Z,52.45
2022-11-29T03:35:42.598Z,54.43
2022-11-29T03:38:47.409Z,49.38
2022-11-29T03:41:59.092Z,56.05
2022-11-29T03:45:25.391Z,57.20
2022-11-29T03:48:27.556Z,53.40
2022-11-29T03:51:49.862Z,49.73
2022-11-29T03:55:07.108Z,51.95
2022-11-29T03:58:24.120Z,50.90
2022-11-29T04:01:50.009Z,54.95
2022-11-29T04:05:11.129Z,50.60
2022-11-29T04:08:27.172Z,53.57
2022-11-29T04:11:58.993Z,51.47
2022-11-29T04:15:18.995Z,59.15
2022-11-29T04:18:53.056Z,48.85
2022-11-29T04:22:19.548Z,52.40
2022-11-29T04:25:53.502Z,54.63
2022-11-29T04:29:07.812Z,53.33
2022-11-29T04:32:40.904Z,52.58
2022-11-29T04:35:51.976Z,58.60
2022-11-29T04:39:07.974Z,50.28
2022-11-29T04:42:18.711Z,46.50
2022-11-29T04:45:39.447Z,54.22
2022-11-29T04:49:03.199Z,51.83
2022-11-29T04:52:23.837Z,46.22
2022-11-29T04:55:47.150Z,45.15
2022-11-29T04:59:03.460Z,51.10
2022-11-29T05:02:16.883Z,52.90
2022-11-29T05:05:22.007Z,45.30
2022-11-29T05:08:33.449Z,45.78
2022-11-29T05:12:01.436Z,49.95
2022-11-29T05:15:41.112Z,53.43
2022-11-29T05:19:11.113Z,56.20
2022-11-29T05:22:31.749Z,49.47
2022-11-29T05:25:51.978Z,50.53
2022-11-29T05:29:14.284Z,53.20
2022-11-29T05:32:44.252Z,54.50
2022-11-29T05:35:49.121Z,46.88
2022-11-29T05:39:14.319Z,52.75
2022-11-29T05:42:28.640Z,55.10
2022-11-29T05:45:49.363Z,55.13
2022-11-29T05:48:58.270Z,48.37
2022-11-29T05:52:22.054Z,55.10
2022-11-29T05:55:35.138Z,53.28
2022-11-29T05:58:58.651Z,50.67
2022-11-29T06:02:11.706Z,51.25
2022-11-29T06:05:19.959Z,57.90
2022-11-29T06:08:34.752Z,45.95
2022-11-29T06:12:02.567Z,54.13
2022-11-29T06:15:28.024Z,45.55
2022-11-29T06:18:48.435Z,47.47
2022-11-29T06:22:21.480Z,51.13
2022-11-29T06:25:31.624Z,51.58
2022-11-29T06:28:52.334Z,43.85
2022-11-29T06:32:08.392Z,57.22
2022-11-29T06:35:49.881Z,50.78
2022-11-29T06:38:52.270Z,51.47
2022-11-29T06:41:54.554Z,51.35
2022-11-29T06:44:56.937Z,53.95
2022-11-29T06:48:02.711Z,52.78
2022-11-29T06:51:39.045Z,52.72
2022-11-29T06:55:01.448Z,41.23
2022-11-29T06:58:09.345Z,45.80
2022-11-29T07:01:14.194Z,45.65
2022-11-29T07:05:02.487Z,60.75
2022-11-29T07:08:27.278Z,53.80
2022-11-29T07:11:31.001Z,54.63
2022-11-29T07:14:35.624Z,50.28
2022-11-29T07:18:15.892Z,50.33
2022-11-29T07:21:40.682Z,46.08
2022-11-29T07:24:55.250Z,39.80
2022-11-29T07:28:18.922Z,42.63
2022-11-29T07:31:33.655Z,47.65
2022-11-29T07:35:16.016Z,43.83
2022-11-29T07:38:34.461Z,36.33
2022-11-29T07:41:47.491Z,43.50
2022-11-29T07:45:26.929Z,39.40
2022-11-29T07:48:30.435Z,38.65
2022-11-29T07:51:33.737Z,47.28
2022-11-29T07:54:37.441Z,37.95
2022-11-29T07:57:40.330Z,47.30
2022-11-29T08:00:44.097Z,49.97
2022-11-29T08:03:47.741Z,43.33
2022-11-29T08:06:50.639Z,48.15
2022-11-29T08:09:54.133Z,47.25
2022-11-29T08:12:57.534Z,53.13
2022-11-29T08:16:00.662Z,42.93
2022-11-29T08:19:05.255Z,50.05
2022-11-29T08:22:08.042Z,50.33
2022-11-29T08:25:11.650Z,48.70
2022-11-29T08:28:14.948Z,45.38
2022-11-29T08:31:17.991Z,50.97
2022-11-29T08:34:22.052Z,48.28
2022-11-29T08:37:25.051Z,43.38
2022-11-29T08:40:28.347Z,37.42
2022-11-29T08:43:31.851Z,35.30
2022-11-29T08:46:53.472Z,45.00
2022-11-29T08:50:02.417Z,41.53
2022-11-29T08:53:23.113Z,41.63
2022-11-29T08:57:16.537Z,43.78
2022-11-29T08:59:47.382Z,32.65
2022-11-29T09:02:49.577Z,38.47
2022-11-29T09:05:52.444Z,39.42
2022-11-29T09:08:56.539Z,41.70
2022-11-29T09:11:58.722Z,39.80
2022-11-29T09:15:00.994Z,37.88
2022-11-29T09:18:05.229Z,41.60
2022-11-29T09:21:09.222Z,41.08
2022-11-29T09:24:11.933Z,41.30
2022-11-29T09:27:14.449Z,42.95
2022-11-29T09:30:22.117Z,43.97
2022-11-29T09:33:25.718Z,38.23
2022-11-29T09:36:29.635Z,41.65
2022-11-29T09:39:31.857Z,46.83
2022-11-29T09:42:56.344Z,41.20
2022-11-29T09:46:35.472Z,36.45
2022-11-29T09:49:42.044Z,34.73
2022-11-29T09:52:56.351Z,34.25
2022-11-29T09:55:58.448Z,32.60
2022-11-29T09:59:08.872Z,37.85
2022-11-29T10:02:25.333Z,34.17
2022-11-29T10:05:57.543Z,39.03
2022-11-29T10:09:14.662Z,34.92
2022-11-29T10:12:30.803Z,37.63
2022-11-29T10:15:39.365Z,33.47
2022-11-29T10:18:49.998Z,30.90
2022-11-29T10:22:02.843Z,32.77
2022-11-29T10:25:07.289Z,32.65
2022-11-29T10:28:13.951Z,30.38
2022-11-29T10:31:28.070Z,33.60
2022-11-29T10:34:31.035Z,32.83
2022-11-29T10:37:34.841Z,32.77
2022-11-29T10:40:38.062Z,30.77
2022-11-29T10:43:40.302Z,29.17
2022-11-29T10:46:42.623Z,28.02
2022-11-29T10:49:44.722Z,29.17
2022-11-29T10:52:46.881Z,31.67
2022-11-29T10:55:53.693Z,34.50
2022-11-29T10:59:05.186Z,30.83
2022-11-29T11:02:20.519Z,28.90
2022-11-29T11:05:26.108Z,25.98
2022-11-29T11:08:28.760Z,29.10
2022-11-29T11:11:32.529Z,31.23
2022-11-29T11:14:37.675Z,26.83
2022-11-29T11:17:42.268Z,28.13
2022-11-29T11:20:56.906Z,26.52
2022-11-29T11:24:03.003Z,23.53
2022-11-29T11:27:05.163Z,29.63
2022-11-29T11:30:33.476Z,26.95
2022-11-29T11:33:41.587Z,27.30
2022-11-29T11:36:43.710Z,26.17
2022-11-29T11:39:48.636Z,26.07
2022-11-29T11:42:50.861Z,24.45
2022-11-29T11:45:53.824Z,28.98
2022-11-29T11:48:56.016Z,27.20
2022-11-29T11:51:59.785Z,23.95
2022-11-29T11:55:05.142Z,29.10
2022-11-29T11:58:16.918Z,25.52
2022-11-29T12:01:28.996Z,25.45
2022-11-29T12:04:34.401Z,27.35
2022-11-29T12:08:07.309Z,25.83
2022-11-29T12:11:10.534Z,27.03
2022-11-29T12:14:57.235Z,24.92
2022-11-29T12:18:06.719Z,24.50
2022-11-29T12:21:14.750Z,25.98
2022-11-29T12:24:31.143Z,25.38
2022-11-29T12:27:33.311Z,24.50
2022-11-29T12:30:35.797Z,26.73
2022-11-29T12:33:53.046Z,24.70
2022-11-29T12:37:15.914Z,24.83
2022-11-29T12:40:28.435Z,21.33
2022-11-29T12:44:07.902Z,25.07
2022-11-29T12:50:52.941Z,23.30
2022-11-29T12:54:19.872Z,24.88
2022-11-29T12:57:49.055Z,27.27
2022-11-29T13:01:34.885Z,27.23
2022-11-29T13:05:15.502Z,27.17
2022-11-29T13:08:44.212Z,27.42
2022-11-29T13:12:19.182Z,29.33
2022-11-29T13:15:50.015Z,24.80
2022-11-29T13:19:17.399Z,25.80
2022-11-29T13:22:31.121Z,30.38
2022-11-29T13:25:41.982Z,28.92
2022-11-29T13:28:46.412Z,30.92
2022-11-29T13:31:49.040Z,32.03
2022-11-29T13:34:52.263Z,30.40
2022-11-29T13:38:08.523Z,29.27
2022-11-29T13:41:34.431Z,32.08
2022-11-29T13:44:51.763Z,32.75
2022-11-29T13:48:00.075Z,30.02
2022-11-29T13:51:42.743Z,32.23
2022-11-29T13:54:45.365Z,30.17
2022-11-29T14:01:18.115Z,30.75
2022-11-29T14:04:38.095Z,31.55
2022-11-29T14:08:18.412Z,32.33
2022-11-29T14:11:26.631Z,35.85
2022-11-29T14:14:49.655Z,38.30
2022-11-29T14:17:51.786Z,37.97
2022-11-29T14:20:57.825Z,37.65
2022-11-29T14:24:31.814Z,61.97
2022-11-29T14:27:33.902Z,41.45
2022-11-29T14:30:45.072Z,73.63
2022-11-29T14:33:47.233Z,65.45
2022-11-29T14:37:16.153Z,42.38
2022-11-29T14:40:21.120Z,41.43
2022-11-29T14:43:38.425Z,39.28
2022-11-29T14:46:40.724Z,39.03
2022-11-29T14:49:44.625Z,38.78
2022-11-29T14:52:51.701Z,39.42
2022-11-29T14:56:28.927Z,40.50
2022-11-29T14:59:51.829Z,37.95
2022-11-29T15:03:13.179Z,40.67
2022-11-29T15:06:23.358Z,36.72
2022-11-29T15:09:27.299Z,38.30
2022-11-29T15:12:36.815Z,39.87
2022-11-29T15:16:13.297Z,40.85
2022-11-29T15:19:46.800Z,46.42
2022-11-29T15:22:52.549Z,38.13
2022-11-29T15:26:00.229Z,40.25
2022-11-29T15:29:17.821Z,41.73
2022-11-29T15:32:20.294Z,41.20
2022-11-29T15:35:22.728Z,44.53
2022-11-29T15:38:25.146Z,42.67
2022-11-29T15:41:29.454Z,44.22
2022-11-29T15:44:32.814Z,39.00
2022-11-29T15:47:35.649Z,45.72
2022-11-29T15:50:39.982Z,48.85
2022-11-29T15:54:11.792Z,46.78
2022-11-29T15:57:29.094Z,51.70
2022-11-29T16:00:33.043Z,55.80
2022-11-29T16:03:39.037Z,59.50
2022-11-29T16:06:42.505Z,59.35
2022-11-29T16:09:48.521Z,61.30
2022-11-29T16:12:59.638Z,117.38
2022-11-29T16:16:15.938Z,90.97
2022-11-29T16:19:23.985Z,83.40
2022-11-29T16:22:26.409Z,108.38
2022-11-29T16:25:32.166Z,105.07
2022-11-29T16:28:42.699Z,64.03
2022-11-29T16:31:44.971Z,56.33
2022-11-29T16:34:52.484Z,57.88
2022-11-29T16:37:54.992Z,52.85
2022-11-29T16:41:02.468Z,50.97
2022-11-29T16:44:06.288Z,67.35
2022-11-29T16:47:12.388Z,68.47
2022-11-29T16:50:20.800Z,76.50
2022-11-29T16:53:42.647Z,74.43
2022-11-29T16:56:45.104Z,73.03
2022-11-29T16:59:47.779Z,65.28
2022-11-29T17:02:50.736Z,64.27
2022-11-29T17:05:54.122Z,65.18
2022-11-29T17:08:58.444Z,63.97
2022-11-29T17:12:02.178Z,59.58
2022-11-29T17:15:04.670Z,64.00
2022-11-29T17:18:06.885Z,58.83
2022-11-29T17:21:21.210Z,55.83
2022-11-29T17:24:24.299Z,69.68
2022-11-29T17:27:26.999Z,69.10
2022-11-29T17:30:30.076Z,62.97
2022-11-29T17:33:32.277Z,66.67
2022-11-29T17:36:34.533Z,65.43
2022-11-29T17:39:40.191Z,71.22
2022-11-29T17:42:42.771Z,67.55
2022-11-29T17:45:45.019Z,90.00
2022-11-29T17:48:48.063Z,81.47
2022-11-29T17:51:52.210Z,85.03
2022-11-29T17:54:55.377Z,104.10
2022-11-29T17:57:58.152Z,94.38
2022-11-29T18:01:08.542Z,77.35
2022-11-29T18:04:11.037Z,85.80
2022-11-29T18:07:15.046Z,82.90
2022-11-29T18:10:17.714Z,78.53
2022-11-29T18:13:20.114Z,87.10
2022-11-29T18:16:29.674Z,82.10
2022-11-29T18:19:32.765Z,105.13
2022-11-29T18:22:35.485Z,96.18
2022-11-29T18:25:39.623Z,106.60
2022-11-29T18:28:47.040Z,96.88
2022-11-29T18:31:49.647Z,89.90
2022-11-29T18:34:52.296Z,88.87
2022-11-29T18:38:14.517Z,92.22
2022-11-29T18:41:20.414Z,97.13
2022-11-29T18:44:30.200Z,116.40
2022-11-29T18:47:33.119Z,124.30
2022-11-29T18:50:35.964Z,116.40
2022-11-29T18:53:39.729Z,125.07
2022-11-29T18:56:43.510Z,139.68
2022-11-29T18:59:46.075Z,153.38
2022-11-29T19:02:49.095Z,140.57
2022-11-29T19:05:54.913Z,128.30
2022-11-29T19:08:58.899Z,125.85
2022-11-29T19:12:04.212Z,145.25
2022-11-29T19:15:07.497Z,137.60
2022-11-29T19:18:10.304Z,136.20
2022-11-29T19:21:13.826Z,146.20
2022-11-29T19:24:18.654Z,155.75
2022-11-29T19:27:26.554Z,171.43
2022-11-29T19:30:29.299Z,179.18
2022-11-29T19:33:33.487Z,168.57
2022-11-29T19:36:43.412Z,176.87
2022-11-29T19:39:47.030Z,175.00
2022-11-29T19:42:50.649Z,186.30
2022-11-29T19:45:53.747Z,180.43
2022-11-29T19:48:57.505Z,183.73
2022-11-29T19:52:00.272Z,199.70
2022-11-29T19:55:05.121Z,191.90
2022-11-29T19:58:07.435Z,208.13
2022-11-29T20:01:14.632Z,193.23
2022-11-29T20:04:18.021Z,204.15
2022-11-29T20:07:20.823Z,198.30
2022-11-29T20:10:24.022Z,171.95
2022-11-29T20:13:26.834Z,162.10
2022-11-29T20:16:31.918Z,152.10
2022-11-29T20:19:34.895Z,137.88
2022-11-29T20:22:38.314Z,125.43
2022-11-29T20:25:41.275Z,122.20
2022-11-29T20:28:44.722Z,118.05
2022-11-29T20:31:51.073Z,104.45
2022-11-29T20:34:54.882Z,134.77
2022-11-29T20:38:01.247Z,146.47
2022-11-29T20:41:20.310Z,119.68
2022-11-29T20:44:38.789Z,130.15
2022-11-29T20:47:46.766Z,108.43
2022-11-29T20:51:01.460Z,114.18
2022-11-29T20:54:04.169Z,135.30
2022-11-29T20:57:06.772Z,124.75
2022-11-29T21:00:11.875Z,107.68
2022-11-29T21:03:15.780Z,102.25
2022-11-29T21:06:18.389Z,115.43
2022-11-29T21:09:21.269Z,112.00
2022-11-29T21:12:24.073Z,107.68
2022-11-29T21:15:26.820Z,101.80
2022-11-29T21:18:30.891Z,111.15
2022-11-29T21:21:49.424Z,103.03
2022-11-29T21:25:10.902Z,75.07
2022-11-29T21:28:14.975Z,95.40
2022-11-29T21:31:18.026Z,95.30
2022-11-29T21:34:20.979Z,97.90
2022-11-29T21:37:26.999Z,106.25
2022-11-29T21:40:29.188Z,97.97
2022-11-29T21:44:04.229Z,95.40
2022-11-29T21:46:54.375Z,106.38
2022-11-29T21:49:56.532Z,91.93
2022-11-29T21:52:58.739Z,86.43
2022-11-29T21:56:02.654Z,91.53
2022-11-29T21:59:05.901Z,89.57
2022-11-29T22:02:08.171Z,73.93
2022-11-29T22:05:10.853Z,86.78
2022-11-29T22:08:13.830Z,86.72
2022-11-29T22:11:30.908Z,93.17
2022-11-29T22:14:34.705Z,94.43
2022-11-29T22:17:36.833Z,85.13
2022-11-29T22:20:39.703Z,87.18
2022-11-29T22:23:41.836Z,100.97
2022-11-29T22:26:44.190Z,70.17
2022-11-29T22:29:47.012Z,70.28
2022-11-29T22:32:49.252Z,100.38
2022-11-29T22:35:51.382Z,88.88
2022-11-29T22:38:53.718Z,89.00
2022-11-29T22:41:56.010Z,93.47
2022-11-29T22:44:58.180Z,77.47
2022-11-29T22:48:00.481Z,84.00
2022-11-29T22:51:07.429Z,88.93
2022-11-29T22:54:11.434Z,77.90
2022-11-29T22:57:13.609Z,75.43
2022-11-29T23:00:16.005Z,76.78
2022-11-29T23:03:18.122Z,78.43
2022-11-29T23:06:28.694Z,74.15
2022-11-29T23:09:30.862Z,79.57
2022-11-29T23:12:33.007Z,70.30
2022-11-29T23:15:35.126Z,72.45
2022-11-29T23:18:38.535Z,72.43
2022-11-29T23:21:41.354Z,67.35
2022-11-29T23:24:43.551Z,69.88
2022-11-29T23:27:45.825Z,70.63
2022-11-29T23:30:48.038Z,71.65
2022-11-29T23:33:50.266Z,72.15
2022-11-29T23:36:53.281Z,72.28
2022-11-29T23:39:55.605Z,70.35
2022-11-29T23:42:57.789Z,67.47
2022-11-29T23:46:06.476Z,65.18
2022-11-29T23:49:08.615Z,62.88
2022-11-29T23:52:11.369Z,56.85
2022-11-29T23:55:14.558Z,58.20
2022-11-29T23:58:16.762Z,60.33
